createdAt,value
2022-08-10T00:01:53.200Z,8.13
2022-08-10T00:04:23.465Z,9.57
2022-08-10T00:06:55.751Z,8.20
2022-08-10T00:09:24.425Z,9.10
2022-08-10T00:11:51.974Z,9.88
2022-08-10T00:14:19.765Z,8.43
2022-08-10T00:16:47.599Z,8.07
2022-08-10T00:19:16.594Z,8.23
2022-08-10T00:21:45.946Z,9.43
2022-08-10T00:24:13.793Z,8.93
2022-08-10T00:27:52.230Z,6.97
2022-08-10T00:29:28.969Z,9.90
2022-08-10T00:31:59.252Z,7.97
2022-08-10T00:34:28.792Z,6.80
2022-08-10T00:36:56.624Z,8.57
2022-08-10T00:39:24.737Z,10.03
2022-08-10T00:42:01.881Z,8.88
2022-08-10T00:44:40.603Z,9.38
2022-08-10T00:47:17.468Z,8.05
2022-08-10T00:49:57.630Z,9.30
2022-08-10T00:52:27.245Z,7.83
2022-08-10T00:54:55.917Z,8.35
2022-08-10T00:57:23.477Z,10.65
2022-08-10T00:59:57.949Z,7.38
2022-08-10T01:02:33.027Z,7.88
2022-08-10T01:05:05.192Z,10.13
2022-08-10T01:08:17.718Z,9.85
2022-08-10T01:11:04.477Z,8.90
2022-08-10T01:13:59.763Z,10.75
2022-08-10T01:17:17.719Z,10.15
2022-08-10T01:20:06.726Z,8.67
2022-08-10T01:23:24.560Z,9.00
2022-08-10T01:26:31.013Z,10.52
2022-08-10T01:29:23.949Z,12.23
2022-08-10T01:31:54.313Z,10.07
2022-08-10T01:34:25.980Z,10.80
2022-08-10T01:37:00.132Z,12.25
2022-08-10T01:39:33.317Z,16.60
2022-08-10T01:42:03.520Z,13.02
2022-08-10T01:44:36.724Z,10.85
2022-08-10T01:47:28.151Z,18.80
2022-08-10T01:50:02.665Z,26.10
2022-08-10T01:52:32.537Z,29.35
2022-08-10T01:55:00.258Z,25.40
2022-08-10T01:57:30.904Z,23.23
2022-08-10T02:00:02.815Z,23.93
2022-08-10T02:02:37.960Z,22.50
2022-08-10T02:05:06.986Z,22.80
2022-08-10T02:07:37.756Z,23.85
2022-08-10T02:10:14.000Z,19.60
2022-08-10T02:12:43.705Z,20.77
2022-08-10T02:15:16.398Z,20.95
2022-08-10T02:17:58.416Z,20.92
2022-08-10T02:20:35.776Z,17.00
2022-08-10T02:23:08.956Z,16.15
2022-08-10T02:25:41.261Z,18.37
2022-08-10T02:28:30.260Z,18.17
2022-08-10T02:31:11.491Z,19.13
2022-08-10T02:33:45.577Z,16.88
2022-08-10T02:36:29.879Z,15.88
2022-08-10T02:39:01.127Z,18.27
2022-08-10T02:45:15.100Z,14.35
2022-08-10T02:45:29.331Z,20.35
2022-08-10T02:48:38.627Z,25.50
2022-08-10T02:51:15.232Z,27.25
2022-08-10T02:53:47.799Z,25.47
2022-08-10T02:56:35.165Z,21.17
2022-08-10T02:59:17.177Z,19.02
2022-08-10T03:01:50.254Z,21.73
2022-08-10T03:04:55.939Z,23.23
2022-08-10T03:07:44.514Z,18.73
2022-08-10T03:10:14.480Z,21.98
2022-08-10T03:12:43.992Z,24.38
2022-08-10T03:15:15.469Z,22.90
2022-08-10T03:17:56.759Z,22.80
2022-08-10T03:20:38.083Z,22.80
2022-08-10T03:23:22.102Z,23.52
2022-08-10T03:25:54.640Z,24.20
2022-08-10T03:28:28.762Z,19.40
2022-08-10T03:30:58.637Z,21.80
2022-08-10T03:33:29.732Z,16.70
2022-08-10T03:36:41.415Z,20.65
2022-08-10T03:38:48.896Z,25.95
2022-08-10T03:41:18.691Z,20.58
2022-08-10T03:43:49.197Z,19.05
2022-08-10T03:46:20.146Z,20.03
2022-08-10T03:48:52.006Z,19.83
2022-08-10T03:51:20.939Z,21.15
2022-08-10T03:54:05.931Z,17.67
2022-08-10T03:56:39.305Z,18.73
2022-08-10T03:59:09.400Z,17.03
2022-08-10T04:02:43.205Z,18.02
2022-08-10T04:04:25.929Z,20.17
2022-08-10T04:06:59.129Z,20.10
2022-08-10T04:09:54.378Z,17.85
2022-08-10T04:12:17.355Z,17.33
2022-08-10T04:14:51.589Z,22.02
2022-08-10T04:18:03.133Z,19.20
2022-08-10T04:20:25.916Z,19.70
2022-08-10T04:23:00.404Z,24.17
2022-08-10T04:25:28.562Z,22.13
2022-08-10T04:27:56.652Z,19.77
2022-08-10T04:30:24.699Z,20.13
2022-08-10T04:32:59.909Z,20.58
2022-08-10T04:35:29.996Z,21.33
2022-08-10T04:37:59.823Z,16.43
2022-08-10T04:40:30.909Z,21.35
2022-08-10T04:43:13.352Z,17.25
2022-08-10T04:45:50.106Z,16.38
2022-08-10T04:48:39.992Z,21.02
2022-08-10T04:51:20.155Z,18.80
2022-08-10T04:54:05.578Z,28.73
2022-08-10T04:56:39.988Z,21.67
2022-08-10T04:59:09.725Z,29.30
2022-08-10T05:02:28.434Z,24.23
2022-08-10T05:04:34.158Z,16.70
2022-08-10T05:07:16.488Z,14.80
2022-08-10T05:10:02.511Z,15.88
2022-08-10T05:12:39.621Z,14.50
2022-08-10T05:15:09.924Z,12.40
2022-08-10T05:17:38.674Z,12.53
2022-08-10T05:20:08.899Z,14.95
2022-08-10T05:22:44.519Z,13.63
2022-08-10T05:25:15.433Z,15.15
2022-08-10T05:27:43.940Z,14.40
2022-08-10T05:30:18.909Z,13.00
2022-08-10T05:32:58.217Z,17.80
2022-08-10T05:35:28.643Z,16.23
2022-08-10T05:38:10.379Z,14.77
2022-08-10T05:40:46.460Z,24.30
2022-08-10T05:43:20.820Z,24.00
2022-08-10T05:46:19.744Z,23.73
2022-08-10T05:48:55.364Z,30.75
2022-08-10T05:51:29.214Z,24.00
2022-08-10T05:54:06.004Z,21.67
2022-08-10T05:56:56.571Z,20.27
2022-08-10T06:00:35.216Z,20.90
2022-08-10T06:02:35.423Z,22.63
2022-08-10T06:05:14.006Z,20.40
2022-08-10T06:08:20.997Z,18.95
2022-08-10T06:12:25.184Z,14.63
2022-08-10T06:14:12.512Z,12.55
2022-08-10T06:16:43.113Z,12.10
2022-08-10T06:19:15.194Z,11.18
2022-08-10T06:21:54.986Z,13.25
2022-08-10T06:24:31.661Z,12.43
2022-08-10T06:27:02.221Z,13.10
2022-08-10T06:29:32.593Z,11.68
2022-08-10T06:32:03.306Z,13.63
2022-08-10T06:34:39.620Z,12.52
2022-08-10T06:37:08.468Z,10.90
2022-08-10T06:39:37.062Z,8.98
2022-08-10T06:42:14.904Z,9.43
2022-08-10T06:45:06.532Z,10.52
2022-08-10T06:48:05.572Z,10.63
2022-08-10T06:50:56.123Z,8.87
2022-08-10T06:53:52.975Z,10.32
2022-08-10T06:56:36.613Z,10.15
2022-08-10T06:59:28.070Z,8.35
2022-08-10T07:02:07.389Z,7.40
2022-08-10T07:04:48.461Z,7.00
2022-08-10T07:07:19.821Z,7.95
2022-08-10T07:09:48.616Z,9.35
2022-08-10T07:12:17.731Z,11.50
2022-08-10T07:14:46.501Z,7.13
2022-08-10T07:17:21.119Z,7.30
2022-08-10T07:20:12.350Z,6.38
2022-08-10T07:23:50.615Z,7.90
2022-08-10T07:25:30.962Z,10.27
2022-08-10T07:28:03.655Z,12.90
2022-08-10T07:30:36.773Z,8.00
2022-08-10T07:33:06.779Z,7.82
2022-08-10T07:35:42.631Z,6.93
2022-08-10T07:38:23.904Z,6.72
2022-08-10T07:40:53.514Z,7.03
2022-08-10T07:43:24.792Z,7.93
2022-08-10T07:45:52.828Z,7.30
2022-08-10T07:48:30.302Z,9.13
2022-08-10T07:51:02.252Z,7.20
2022-08-10T07:53:43.322Z,7.60
2022-08-10T07:56:26.266Z,12.70
2022-08-10T07:59:08.188Z,7.43
2022-08-10T08:01:41.500Z,8.20
2022-08-10T08:04:12.707Z,9.25
2022-08-10T08:06:42.928Z,7.97
2022-08-10T08:09:11.533Z,9.50
2022-08-10T08:11:44.555Z,5.95
2022-08-10T08:14:15.539Z,8.60
2022-08-10T08:16:46.630Z,5.88
2022-08-10T08:19:37.708Z,8.32
2022-08-10T08:24:07.380Z,7.63
2022-08-10T08:24:55.657Z,8.05
2022-08-10T08:27:24.895Z,6.40
2022-08-10T08:29:53.620Z,7.72
2022-08-10T08:32:26.333Z,7.57
2022-08-10T08:35:07.413Z,11.30
2022-08-10T08:38:31.371Z,8.25
2022-08-10T08:40:34.035Z,6.97
2022-08-10T08:43:23.142Z,8.55
2022-08-10T08:46:18.224Z,6.82
2022-08-10T08:49:11.249Z,8.37
2022-08-10T08:52:09.832Z,8.48
2022-08-10T08:55:00.115Z,9.90
2022-08-10T08:57:50.195Z,9.05
2022-08-10T09:00:42.647Z,8.40
2022-08-10T09:03:47.587Z,8.83
2022-08-10T09:06:29.074Z,9.80
2022-08-10T09:09:27.160Z,9.13
2022-08-10T09:12:07.516Z,11.90
2022-08-10T09:14:49.211Z,11.00
2022-08-10T09:17:26.316Z,7.97
2022-08-10T09:20:13.643Z,9.10
2022-08-10T09:22:57.305Z,10.52
2022-08-10T09:25:31.130Z,11.20
2022-08-10T09:28:09.722Z,10.95
2022-08-10T09:31:21.595Z,9.23
2022-08-10T09:36:24.973Z,8.35
2022-08-10T09:37:39.871Z,12.13
2022-08-10T09:41:01.020Z,8.80
2022-08-10T09:43:44.973Z,9.82
2022-08-10T09:46:33.876Z,9.80
2022-08-10T09:49:52.893Z,8.90
2022-08-10T09:52:37.374Z,9.18
2022-08-10T09:55:24.976Z,10.63
2022-08-10T09:58:47.511Z,11.50
2022-08-10T10:01:58.383Z,11.80
2022-08-10T10:04:19.229Z,10.23
2022-08-10T10:06:52.660Z,11.18
2022-08-10T10:09:30.784Z,12.10
2022-08-10T10:12:26.225Z,10.73
2022-08-10T10:15:24.495Z,12.30
2022-08-10T10:18:23.097Z,11.32
2022-08-10T10:21:05.882Z,11.63
2022-08-10T10:24:21.633Z,12.13
2022-08-10T10:26:59.572Z,12.00
2022-08-10T10:29:56.506Z,13.43
2022-08-10T10:32:58.136Z,12.00
2022-08-10T10:35:55.847Z,14.90
2022-08-10T10:38:27.267Z,17.17
2022-08-10T10:41:27.516Z,18.02
2022-08-10T10:44:20.585Z,16.03
2022-08-10T10:46:50.508Z,16.35
2022-08-10T10:49:55.248Z,20.20
2022-08-10T10:52:39.341Z,16.05
2022-08-10T10:55:14.923Z,17.48
2022-08-10T10:58:20.079Z,17.37
2022-08-10T11:01:20.048Z,15.32
2022-08-10T11:04:09.781Z,16.63
2022-08-10T11:06:55.671Z,17.95
2022-08-10T11:10:09.053Z,18.33
2022-08-10T11:12:46.803Z,18.83
2022-08-10T11:15:26.932Z,20.13
2022-08-10T11:18:05.046Z,20.40
2022-08-10T11:20:52.364Z,18.88
2022-08-10T11:24:48.879Z,18.80
2022-08-10T11:26:54.405Z,25.53
2022-08-10T11:29:50.470Z,21.92
2022-08-10T11:32:41.587Z,23.35
2022-08-10T11:35:12.689Z,22.08
2022-08-10T11:38:34.912Z,22.33
2022-08-10T11:40:58.578Z,20.43
2022-08-10T11:43:52.283Z,25.58
2022-08-10T11:46:44.829Z,27.58
2022-08-10T11:49:32.551Z,25.30
2022-08-10T11:52:23.035Z,23.52
2022-08-10T11:55:05.670Z,23.77
2022-08-10T11:57:54.539Z,20.70
2022-08-10T12:00:24.545Z,21.65
2022-08-10T12:02:59.431Z,21.55
2022-08-10T12:05:51.786Z,23.98
2022-08-10T12:10:03.078Z,20.40
2022-08-10T12:11:24.312Z,20.27
2022-08-10T12:14:20.949Z,20.38
2022-08-10T12:16:58.657Z,18.75
2022-08-10T12:20:01.522Z,23.08
2022-08-10T12:22:33.954Z,22.97
2022-08-10T12:25:05.840Z,20.70
2022-08-10T12:27:39.898Z,23.83
2022-08-10T12:30:18.203Z,20.48
2022-08-10T12:33:02.534Z,21.85
2022-08-10T12:36:14.801Z,19.60
2022-08-10T12:38:50.303Z,21.38
2022-08-10T12:41:43.706Z,21.80
2022-08-10T12:44:18.515Z,18.13
2022-08-10T12:47:05.683Z,20.60
2022-08-10T12:50:30.184Z,19.13
2022-08-10T12:52:56.634Z,21.45
2022-08-10T12:55:28.165Z,20.58
2022-08-10T12:57:57.817Z,19.80
2022-08-10T13:00:33.406Z,20.30
2022-08-10T13:03:03.642Z,18.00
2022-08-10T13:06:00.273Z,18.67
2022-08-10T13:08:40.768Z,18.95
2022-08-10T13:11:24.408Z,19.50
2022-08-10T13:14:08.403Z,18.92
2022-08-10T13:16:37.375Z,17.63
2022-08-10T13:19:06.936Z,16.48
2022-08-10T13:21:38.368Z,16.90
2022-08-10T13:24:10.408Z,16.95
2022-08-10T13:27:24.887Z,16.50
2022-08-10T13:30:03.435Z,17.67
2022-08-10T13:32:36.355Z,17.15
2022-08-10T13:35:18.048Z,16.10
2022-08-10T13:37:49.257Z,16.98
2022-08-10T13:40:20.553Z,16.10
2022-08-10T13:42:50.269Z,18.17
2022-08-10T13:45:25.239Z,16.55
2022-08-10T13:48:09.874Z,14.80
2022-08-10T13:50:41.112Z,15.60
2022-08-10T13:53:15.510Z,16.55
2022-08-10T13:55:53.877Z,16.90
2022-08-10T13:58:33.093Z,15.90
2022-08-10T14:01:09.473Z,15.32
2022-08-10T14:03:40.225Z,15.18
2022-08-10T14:06:12.697Z,16.88
2022-08-10T14:08:45.971Z,16.37
2022-08-10T14:11:17.525Z,17.00
2022-08-10T14:13:53.009Z,15.60
2022-08-10T14:16:23.361Z,15.43
2022-08-10T14:18:56.093Z,16.75
2022-08-10T14:21:23.922Z,17.83
2022-08-10T14:23:53.799Z,17.17
2022-08-10T14:26:32.418Z,14.27
2022-08-10T14:29:08.447Z,15.88
2022-08-10T14:31:38.545Z,15.65
2022-08-10T14:36:16.821Z,16.83
2022-08-10T14:37:43.620Z,17.52
2022-08-10T14:40:29.083Z,16.10
2022-08-10T14:43:08.082Z,14.60
2022-08-10T14:45:40.173Z,15.48
2022-08-10T14:48:16.310Z,15.97
2022-08-10T14:50:55.584Z,13.88
2022-08-10T14:53:27.441Z,15.82
2022-08-10T14:56:07.214Z,15.55
2022-08-10T14:58:59.356Z,20.02
2022-08-10T15:02:00.240Z,21.63
2022-08-10T15:04:28.837Z,21.75
2022-08-10T15:07:02.539Z,25.33
2022-08-10T15:10:00.747Z,24.58
2022-08-10T15:12:40.476Z,21.48
2022-08-10T15:15:18.073Z,23.53
2022-08-10T15:17:58.200Z,28.77
2022-08-10T15:20:32.297Z,28.33
2022-08-10T15:23:04.507Z,24.70
2022-08-10T15:25:36.580Z,22.70
2022-08-10T15:28:10.736Z,22.50
2022-08-10T15:30:52.158Z,21.13
2022-08-10T15:34:03.098Z,20.65
2022-08-10T15:37:36.246Z,19.98
2022-08-10T15:40:25.808Z,19.70
2022-08-10T15:42:52.848Z,19.77
2022-08-10T15:45:20.751Z,18.45
2022-08-10T15:47:55.281Z,19.42
2022-08-10T15:50:44.234Z,18.98
2022-08-10T15:53:49.752Z,19.58
2022-08-10T15:56:30.747Z,18.47
2022-08-10T15:59:11.300Z,19.33
2022-08-10T16:02:12.981Z,19.30
2022-08-10T16:04:53.787Z,18.60
2022-08-10T16:07:45.374Z,20.65
2022-08-10T16:10:26.186Z,15.27
2022-08-10T16:13:01.062Z,18.35
2022-08-10T16:15:33.167Z,15.80
2022-08-10T16:18:04.882Z,16.20
2022-08-10T16:20:53.059Z,16.38
2022-08-10T16:23:32.205Z,17.50
2022-08-10T16:26:15.265Z,15.57
2022-08-10T16:29:16.437Z,17.20
2022-08-10T16:31:53.796Z,12.82
2022-08-10T16:34:23.416Z,12.95
2022-08-10T16:36:58.147Z,17.30
2022-08-10T16:39:58.807Z,15.27
2022-08-10T16:42:23.780Z,14.35
2022-08-10T16:44:58.130Z,15.00
2022-08-10T16:47:31.306Z,13.10
2022-08-10T16:50:03.819Z,18.37
2022-08-10T16:52:33.840Z,11.45
2022-08-10T16:55:24.116Z,12.73
2022-08-10T16:58:05.307Z,11.10
2022-08-10T17:00:34.476Z,14.48
2022-08-10T17:03:22.805Z,10.47
2022-08-10T17:06:10.076Z,11.95
2022-08-10T17:08:47.953Z,13.55
2022-08-10T17:11:18.786Z,11.88
2022-08-10T17:13:46.756Z,13.85
2022-08-10T17:16:17.337Z,12.03
2022-08-10T17:18:48.532Z,11.80
2022-08-10T17:21:23.227Z,11.05
2022-08-10T17:23:55.863Z,13.93
2022-08-10T17:26:31.197Z,12.68
2022-08-10T17:29:53.279Z,10.33
2022-08-10T17:32:06.091Z,14.93
2022-08-10T17:34:39.341Z,13.70
2022-08-10T17:37:17.395Z,11.55
2022-08-10T17:39:58.233Z,12.35
2022-08-10T17:42:27.924Z,13.40
2022-08-10T17:44:57.358Z,13.50
2022-08-10T17:47:27.848Z,11.57
2022-08-10T17:49:59.507Z,12.18
2022-08-10T17:52:32.404Z,14.15
2022-08-10T17:55:07.827Z,15.37
2022-08-10T17:57:38.317Z,12.82
2022-08-10T18:00:13.859Z,12.90
2022-08-10T18:02:45.315Z,13.68
2022-08-10T18:05:14.226Z,14.25
2022-08-10T18:07:50.324Z,15.93
2022-08-10T18:10:21.343Z,16.40
2022-08-10T18:12:56.777Z,13.18
2022-08-10T18:15:27.558Z,15.73
2022-08-10T18:18:01.666Z,13.10
2022-08-10T18:20:39.035Z,18.87
2022-08-10T18:23:08.584Z,13.57
2022-08-10T18:25:42.080Z,15.25
2022-08-10T18:28:16.425Z,11.57
2022-08-10T18:30:48.375Z,13.88
2022-08-10T18:33:27.175Z,8.07
2022-08-10T18:35:56.569Z,8.27
2022-08-10T18:38:26.346Z,9.50
2022-08-10T18:40:59.765Z,8.45
2022-08-10T18:44:06.537Z,8.68
2022-08-10T18:46:34.315Z,8.57
2022-08-10T18:49:07.002Z,7.60
2022-08-10T18:51:46.870Z,8.63
2022-08-10T18:54:39.429Z,7.20
2022-08-10T18:57:18.814Z,7.97
2022-08-10T19:00:07.545Z,7.63
2022-08-10T19:02:55.113Z,9.45
2022-08-10T19:05:55.948Z,7.63
2022-08-10T19:09:01.032Z,8.95
2022-08-10T19:11:54.914Z,9.13
2022-08-10T19:14:42.739Z,8.13
2022-08-10T19:17:21.209Z,8.57
2022-08-10T19:20:07.056Z,9.75
2022-08-10T19:23:18.674Z,8.65
2022-08-10T19:26:42.325Z,9.20
2022-08-10T19:28:58.454Z,7.67
2022-08-10T19:31:44.341Z,9.27
2022-08-10T19:34:29.583Z,7.82
2022-08-10T19:37:03.054Z,6.85
2022-08-10T19:39:51.080Z,9.13
2022-08-10T19:42:47.274Z,8.87
2022-08-10T19:46:01.247Z,7.18
2022-08-10T19:48:23.318Z,10.10
2022-08-10T19:51:01.202Z,8.07
2022-08-10T19:53:50.361Z,9.13
2022-08-10T19:57:01.190Z,10.40
2022-08-10T20:00:17.400Z,8.52
2022-08-10T20:03:35.212Z,7.85
2022-08-10T20:06:20.552Z,8.07
2022-08-10T20:09:00.806Z,8.50
2022-08-10T20:12:02.042Z,8.33
2022-08-10T20:15:02.282Z,9.85
2022-08-10T20:17:51.762Z,6.65
2022-08-10T20:20:31.339Z,8.73
2022-08-10T20:23:11.144Z,9.32
2022-08-10T20:25:42.781Z,6.87
2022-08-10T20:28:21.538Z,8.02
2022-08-10T20:30:53.413Z,6.47
2022-08-10T20:33:34.524Z,7.25
2022-08-10T20:36:06.211Z,6.47
2022-08-10T20:38:43.802Z,5.83
2022-08-10T20:41:20.152Z,6.70
2022-08-10T20:44:08.048Z,6.30
2022-08-10T20:46:50.991Z,7.82
2022-08-10T20:49:37.742Z,7.35
2022-08-10T20:52:06.898Z,7.10
2022-08-10T20:54:47.517Z,7.13
2022-08-10T20:57:54.526Z,7.60
2022-08-10T21:00:50.319Z,9.43
2022-08-10T21:03:45.069Z,6.53
2022-08-10T21:06:42.626Z,7.57
2022-08-10T21:09:54.793Z,6.53
2022-08-10T21:12:59.783Z,7.43
2022-08-10T21:15:55.597Z,8.93
2022-08-10T21:18:54.683Z,8.48
2022-08-10T21:22:00.283Z,7.00
2022-08-10T21:24:55.113Z,9.88
2022-08-10T23:39:44.367Z,9.20
2022-08-10T23:42:19.169Z,7.13
2022-08-10T23:44:58.075Z,9.82
2022-08-10T23:47:27.622Z,8.05
2022-08-10T23:49:58.497Z,7.50
2022-08-10T23:52:29.410Z,6.55
2022-08-10T23:54:59.765Z,6.13
2022-08-10T23:57:28.896Z,8.10
